createdAt,value
2023-04-09T00:02:10.437Z,100525.03
2023-04-09T00:04:37.122Z,100525.97
2023-04-09T00:07:03.492Z,100522.53
2023-04-09T00:09:29.869Z,100517.38
2023-04-09T00:11:57.027Z,100516.47
2023-04-09T00:14:23.818Z,100515.69
2023-04-09T00:16:50.378Z,100521.88
2023-04-09T00:19:16.769Z,100511.34
2023-04-09T00:21:43.142Z,100514.03
2023-04-09T00:24:09.505Z,100515.81
2023-04-09T00:26:36.281Z,100523.72
2023-04-09T00:29:02.744Z,100519.38
2023-04-09T00:31:29.236Z,100517.59
2023-04-09T00:33:56.217Z,100517.56
2023-04-09T00:36:23.802Z,100510.56
2023-04-09T00:38:51.905Z,100510.56
2023-04-09T00:41:18.451Z,100506.19
2023-04-09T00:43:44.792Z,100508.81
2023-04-09T00:46:11.328Z,100507.03
2023-04-09T00:48:37.826Z,100512.31
2023-04-09T00:51:04.244Z,100507.03
2023-04-09T00:53:30.817Z,100500.00
2023-04-09T00:55:59.292Z,100501.78
2023-04-09T00:58:25.738Z,100498.25
2023-04-09T01:00:52.101Z,100500.88
2023-04-09T01:03:20.036Z,100500.00
2023-04-09T01:06:08.155Z,100488.66
2023-04-09T01:08:47.774Z,100490.34
2023-04-09T01:11:38.617Z,100487.72
2023-04-09T01:14:30.211Z,100497.38
2023-04-09T01:17:02.890Z,100487.72
2023-04-09T01:19:44.309Z,100492.97
2023-04-09T01:22:41.456Z,100495.59
2023-04-09T01:25:37.502Z,100500.84
2023-04-09T01:28:20.972Z,100498.19
2023-04-09T01:30:53.595Z,100502.59
2023-04-09T01:33:21.346Z,100501.69
2023-04-09T01:35:49.434Z,100502.56
2023-04-09T01:38:18.703Z,100504.28
2023-04-09T01:40:46.964Z,100506.00
2023-04-09T01:43:14.815Z,100502.47
2023-04-09T01:45:42.844Z,100503.34
2023-04-09T01:48:09.901Z,100507.75
2023-04-09T01:50:36.435Z,100506.84
2023-04-09T01:53:03.648Z,100513.88
2023-04-09T01:55:30.009Z,100514.75
2023-04-09T01:57:56.625Z,100518.22
2023-04-09T02:00:26.568Z,100509.44
2023-04-09T02:03:02.064Z,100505.03
2023-04-09T02:05:35.343Z,100509.44
2023-04-09T02:08:03.777Z,100502.41
2023-04-09T02:10:34.092Z,100505.94
2023-04-09T02:13:04.445Z,100507.63
2023-04-09T02:15:32.124Z,100501.50
2023-04-09T02:17:58.585Z,100498.84
2023-04-09T02:20:25.042Z,100497.91
2023-04-09T02:22:51.372Z,100504.03
2023-04-09T02:25:17.730Z,100506.63
2023-04-09T02:27:44.052Z,100512.75
2023-04-09T02:30:10.628Z,100505.72
2023-04-09T02:32:36.978Z,100503.97
2023-04-09T02:35:04.648Z,100502.19
2023-04-09T02:37:31.148Z,100503.06
2023-04-09T02:39:57.491Z,100497.75
2023-04-09T02:42:23.849Z,100501.25
2023-04-09T02:44:50.274Z,100500.34
2023-04-09T02:47:16.635Z,100505.59
2023-04-09T02:49:42.988Z,100514.38
2023-04-09T02:52:10.337Z,100503.78
2023-04-09T02:54:36.751Z,100496.78
2023-04-09T02:57:03.132Z,100502.09
2023-04-09T02:59:29.497Z,100499.44
2023-04-09T03:01:55.893Z,100498.53
2023-04-09T03:04:22.360Z,100494.97
2023-04-09T03:06:48.760Z,100493.22
2023-04-09T03:09:15.088Z,100488.81
2023-04-09T03:11:41.400Z,100486.16
2023-04-09T03:14:07.736Z,100489.66
2023-04-09T03:16:34.040Z,100488.75
2023-04-09T03:19:00.357Z,100486.13
2023-04-09T03:21:27.370Z,100481.72
2023-04-09T03:23:53.707Z,100485.28
2023-04-09T03:26:20.451Z,100480.00
2023-04-09T03:28:48.282Z,100474.69
2023-04-09T03:31:15.447Z,100482.59
2023-04-09T03:33:42.206Z,100474.69
2023-04-09T03:36:08.944Z,100471.19
2023-04-09T03:38:35.520Z,100472.06
2023-04-09T03:41:01.857Z,100463.25
2023-04-09T03:43:28.191Z,100467.59
2023-04-09T03:45:54.523Z,100473.78
2023-04-09T03:48:20.987Z,100468.50
2023-04-09T03:50:47.341Z,100468.44
2023-04-09T09:35:02.827Z,100490.00
2023-04-09T09:37:29.611Z,100490.13
2023-04-09T09:39:56.526Z,100490.28
2023-04-09T09:42:23.149Z,100491.59
2023-04-09T09:44:51.660Z,100495.78
2023-04-09T09:47:19.824Z,100492.69
2023-04-09T09:49:51.396Z,100492.66
2023-04-09T09:52:23.296Z,100491.00
2023-04-09T09:54:54.939Z,100488.94
2023-04-09T09:57:24.953Z,100486.31
2023-04-09T09:59:55.505Z,100483.31
2023-04-09T10:02:30.751Z,100475.19
2023-04-09T10:05:00.707Z,100484.16
2023-04-09T10:07:28.101Z,100472.63
2023-04-09T10:09:56.678Z,100460.28
2023-04-09T10:12:27.206Z,100485.66
2023-04-09T10:14:55.253Z,100478.38
2023-04-09T10:17:21.767Z,100469.72
2023-04-09T10:20:05.328Z,100473.31
2023-04-09T10:22:34.964Z,100466.28
2023-04-09T10:25:02.835Z,100462.09
2023-04-09T10:27:31.096Z,100465.78
2023-04-09T10:29:57.594Z,100466.44
2023-04-09T10:32:26.874Z,100461.47
2023-04-09T10:34:57.553Z,100465.53
2023-04-09T10:37:25.854Z,100458.63
2023-04-09T10:39:53.164Z,100466.47
2023-04-09T10:42:22.052Z,100464.00
2023-04-09T10:45:06.221Z,100476.22
2023-04-09T10:47:34.768Z,100471.56
2023-04-09T10:50:20.652Z,100475.75
2023-04-09T10:52:51.642Z,100476.66
2023-04-09T10:55:40.767Z,100480.06
2023-04-09T10:58:13.614Z,100474.44
2023-04-09T11:00:44.455Z,100472.78
2023-04-09T11:03:22.225Z,100476.16
2023-04-09T11:05:52.611Z,100472.75
2023-04-09T11:08:19.525Z,100467.75
2023-04-09T11:10:49.046Z,100470.91
2023-04-09T11:13:18.514Z,100465.16
2023-04-09T11:15:45.971Z,100462.63
2023-04-09T11:18:20.265Z,100461.16
2023-04-09T11:20:46.729Z,100468.28
2023-04-09T11:23:14.155Z,100470.53
2023-04-09T11:25:40.869Z,100460.31
2023-04-09T11:28:08.363Z,100467.03
2023-04-09T11:30:36.020Z,100465.34
2023-04-09T11:33:03.696Z,100462.88
2023-04-09T11:35:31.258Z,100465.84
2023-04-09T11:37:58.101Z,100469.25
2023-04-09T11:40:26.440Z,100468.03
2023-04-09T11:42:54.520Z,100469.88
2023-04-09T11:45:26.338Z,100465.16
2023-04-09T11:47:53.699Z,100461.88
2023-04-09T11:50:22.080Z,100463.59
2023-04-09T11:52:49.716Z,100464.84
2023-04-09T11:55:27.487Z,100461.50
2023-04-09T11:57:58.131Z,100466.53
2023-04-09T12:00:25.162Z,100465.97
2023-04-09T12:02:59.501Z,100462.41
2023-04-09T12:05:28.998Z,100455.38
2023-04-09T12:08:09.083Z,100452.47
2023-04-09T12:10:37.576Z,100447.59
2023-04-09T12:13:06.477Z,100454.00
2023-04-09T12:15:37.387Z,100443.75
2023-04-09T12:18:04.266Z,100444.00
2023-04-09T12:20:35.237Z,100445.66
2023-04-09T12:23:04.645Z,100439.53
2023-04-09T12:25:43.504Z,100437.97
2023-04-09T12:28:12.324Z,100435.22
2023-04-09T12:30:38.672Z,100433.47
2023-04-09T12:33:05.752Z,100434.53
2023-04-09T12:35:32.937Z,100429.16
2023-04-09T12:37:59.438Z,100420.75
2023-04-09T12:40:26.633Z,100427.47
2023-04-09T12:42:53.749Z,100420.47
2023-04-09T12:45:21.547Z,100425.97
2023-04-09T12:47:48.904Z,100423.00
2023-04-09T12:50:19.000Z,100421.41
2023-04-09T12:52:45.922Z,100414.00
2023-04-09T12:55:13.842Z,100420.94
2023-04-09T12:57:44.270Z,100413.81
2023-04-09T13:00:11.367Z,100415.03
2023-04-09T13:02:38.239Z,100409.38
2023-04-09T13:05:05.149Z,100415.66
2023-04-09T13:07:31.570Z,100408.88
2023-04-09T13:09:58.618Z,100405.25
2023-04-09T13:12:25.635Z,100408.59
2023-04-09T13:14:54.770Z,100399.69
2023-04-09T13:17:22.158Z,100398.72
2023-04-09T13:19:49.248Z,100386.66
2023-04-09T13:22:15.698Z,100389.34
2023-04-09T13:24:43.278Z,100388.09
2023-04-09T13:27:11.379Z,100389.44
2023-04-09T13:29:38.836Z,100382.44
2023-04-09T13:32:10.488Z,100380.31
2023-04-09T13:34:36.892Z,100381.31
2023-04-09T13:37:03.798Z,100378.19
2023-04-09T13:39:30.655Z,100372.78
2023-04-09T13:41:57.244Z,100375.97
2023-04-09T13:44:25.255Z,100377.84
2023-04-09T13:46:51.701Z,100377.44
2023-04-09T13:49:18.450Z,100373.75
2023-04-09T13:51:45.269Z,100373.06
2023-04-09T13:54:11.850Z,100366.03
2023-04-09T13:56:39.075Z,100364.78
2023-04-09T13:59:06.259Z,100369.75
2023-04-09T14:01:33.345Z,100365.94
2023-04-09T14:03:59.881Z,100365.47
2023-04-09T14:06:26.453Z,100356.78
2023-04-09T14:08:53.370Z,100346.72
2023-04-09T14:11:19.936Z,100348.09
2023-04-09T14:13:47.091Z,100349.41
2023-04-09T14:16:13.746Z,100344.06
2023-04-09T14:18:40.207Z,100340.63
2023-04-09T14:21:10.027Z,100336.88
2023-04-09T14:23:37.144Z,100335.75
2023-04-09T14:26:04.368Z,100333.25
2023-04-09T14:28:30.992Z,100333.94
2023-04-09T14:30:58.246Z,100337.38
2023-04-09T14:33:25.855Z,100332.88
2023-04-09T14:35:52.468Z,100330.78
2023-04-09T14:38:18.985Z,100332.03
2023-04-09T14:40:45.386Z,100335.00
2023-04-09T14:43:11.891Z,100326.22
2023-04-09T14:45:38.444Z,100335.47
2023-04-09T14:48:04.814Z,100335.53
2023-04-09T14:50:34.335Z,100331.53
2023-04-09T14:53:01.141Z,100333.28
2023-04-09T14:55:27.780Z,100330.56
2023-04-09T14:57:54.173Z,100328.06
2023-04-09T15:00:21.113Z,100328.88
2023-04-09T15:02:48.458Z,100326.28
2023-04-09T15:05:15.102Z,100314.06
2023-04-09T15:07:41.776Z,100312.84
2023-04-09T15:10:08.957Z,100322.22
2023-04-09T15:12:35.406Z,100309.31
2023-04-09T15:15:05.966Z,100318.19
2023-04-09T15:17:32.709Z,100316.97
2023-04-09T15:19:59.710Z,100312.84
2023-04-09T15:22:26.288Z,100311.06
2023-04-09T15:24:53.255Z,100312.66
2023-04-09T15:27:19.582Z,100307.47
2023-04-09T15:29:46.038Z,100303.94
2023-04-09T15:32:12.464Z,100298.53
2023-04-09T15:34:38.902Z,100306.91
2023-04-09T15:37:05.510Z,100299.06
2023-04-09T15:39:32.582Z,100303.84
2023-04-09T15:41:59.107Z,100294.09
2023-04-09T15:44:26.312Z,100297.34
2023-04-09T15:46:52.863Z,100301.66
2023-04-09T15:49:19.799Z,100302.03
2023-04-09T15:51:46.500Z,100294.94
2023-04-09T15:54:14.154Z,100294.69
2023-04-09T15:56:40.634Z,100289.59
2023-04-09T15:59:08.189Z,100292.28
2023-04-09T16:01:36.359Z,100293.38
2023-04-09T16:04:04.740Z,100295.81
2023-04-09T16:06:31.402Z,100287.72
2023-04-09T16:08:57.909Z,100293.06
2023-04-09T16:11:24.291Z,100287.63
2023-04-09T16:13:50.648Z,100295.63
2023-04-09T16:16:17.327Z,100288.47
2023-04-09T16:18:43.780Z,100288.69
2023-04-09T16:21:10.188Z,100290.56
2023-04-09T16:23:36.600Z,100286.00
2023-04-09T16:26:03.204Z,100286.34
2023-04-09T16:28:29.622Z,100284.19
2023-04-09T16:30:56.312Z,100287.03
2023-04-09T16:33:22.854Z,100287.47
2023-04-09T16:35:49.547Z,100281.44
2023-04-09T16:38:16.122Z,100273.44
2023-04-09T16:40:43.496Z,100281.19
2023-04-09T16:43:09.963Z,100278.13
2023-04-09T16:45:36.401Z,100280.47
2023-04-09T16:48:02.910Z,100280.75
2023-04-09T16:50:29.346Z,100279.69
2023-04-09T16:52:56.087Z,100284.28
2023-04-09T16:55:22.563Z,100287.69
2023-04-09T16:57:48.960Z,100283.22
2023-04-09T17:00:17.225Z,100281.81
2023-04-09T17:02:44.605Z,100276.75
2023-04-09T17:05:11.327Z,100281.47
2023-04-09T17:07:37.940Z,100270.06
2023-04-09T17:10:05.203Z,100272.50
2023-04-09T17:12:32.403Z,100270.63
2023-04-09T17:14:58.883Z,100270.22
2023-04-09T17:17:25.286Z,100281.16
2023-04-09T17:19:53.285Z,100276.75
2023-04-09T17:22:19.697Z,100288.31
2023-04-09T17:24:46.136Z,100283.59
2023-04-09T17:27:12.647Z,100283.16
2023-04-09T17:29:39.110Z,100285.81
2023-04-09T17:32:06.106Z,100276.09
2023-04-09T17:34:32.507Z,100271.94
2023-04-09T17:36:59.961Z,100275.00
2023-04-09T17:39:26.983Z,100279.63
2023-04-09T17:41:56.195Z,100280.66
2023-04-09T17:44:24.805Z,100289.84
2023-04-09T17:46:51.851Z,100289.06
2023-04-09T17:49:18.346Z,100292.81
2023-04-09T17:51:46.146Z,100294.84
2023-04-09T17:54:13.314Z,100291.63
2023-04-09T17:56:39.668Z,100297.28
2023-04-09T17:59:07.111Z,100294.91
2023-04-09T18:01:33.653Z,100297.97
2023-04-09T18:04:01.349Z,100300.00
2023-04-09T18:06:28.134Z,100297.78
2023-04-09T18:08:54.858Z,100301.06
2023-04-09T18:11:21.553Z,100297.81
2023-04-09T18:13:49.807Z,100307.03
2023-04-09T18:16:17.659Z,100311.72
2023-04-09T18:18:45.280Z,100309.47
2023-04-09T18:21:11.612Z,100315.28
2023-04-09T18:23:40.402Z,100325.44
2023-04-09T18:26:07.717Z,100325.06
2023-04-09T18:28:35.584Z,100328.19
2023-04-09T18:31:02.038Z,100324.25
2023-04-09T18:33:28.501Z,100323.00
2023-04-09T18:35:54.984Z,100329.53
2023-04-09T18:38:21.548Z,100326.91
2023-04-09T18:40:47.882Z,100329.78
2023-04-09T18:43:14.208Z,100328.44
2023-04-09T18:45:40.794Z,100324.34
2023-04-09T18:48:08.650Z,100327.53
2023-04-09T18:50:35.458Z,100326.19
2023-04-09T18:53:03.720Z,100332.50
2023-04-09T18:55:30.379Z,100332.13
2023-04-09T18:57:58.382Z,100331.09
2023-04-09T19:00:24.871Z,100330.72
2023-04-09T19:02:51.617Z,100333.00
2023-04-09T19:05:18.169Z,100326.53
2023-04-09T19:07:44.745Z,100318.59
2023-04-09T19:10:13.058Z,100322.25
2023-04-09T19:12:39.589Z,100324.09
2023-04-09T19:15:06.869Z,100329.84
2023-04-09T19:17:34.191Z,100336.53
2023-04-09T19:20:01.083Z,100334.19
2023-04-09T19:22:28.098Z,100336.22
2023-04-09T19:24:54.491Z,100335.59
2023-04-09T19:27:20.896Z,100335.03
2023-04-09T19:29:47.304Z,100340.47
2023-04-09T19:32:14.623Z,100340.72
2023-04-09T19:34:41.080Z,100338.47
2023-04-09T19:37:07.554Z,100342.44
2023-04-09T19:39:33.989Z,100340.06
2023-04-09T19:42:00.646Z,100342.16
2023-04-09T19:44:27.006Z,100340.69
2023-04-09T19:46:53.415Z,100333.72
2023-04-09T19:49:19.808Z,100332.25
2023-04-09T19:51:46.637Z,100332.47
2023-04-09T19:54:14.921Z,100337.09
2023-04-09T19:56:42.453Z,100333.94
2023-04-09T19:59:08.864Z,100332.38
2023-04-09T20:01:36.048Z,100329.91
2023-04-09T20:04:02.678Z,100338.97
2023-04-09T20:06:30.759Z,100336.72
2023-04-09T20:08:57.345Z,100337.66
2023-04-09T20:11:23.688Z,100340.44
2023-04-09T20:13:50.067Z,100338.94
2023-04-09T20:16:16.792Z,100340.13
2023-04-09T20:18:43.295Z,100339.56
2023-04-09T20:21:13.916Z,100341.28
2023-04-09T20:23:40.883Z,100343.25
2023-04-09T20:26:11.151Z,100348.78
2023-04-09T20:28:37.617Z,100348.94
2023-04-09T20:31:04.252Z,100349.16
2023-04-09T20:33:30.709Z,100357.16
2023-04-09T20:35:57.225Z,100350.31
2023-04-09T20:38:24.209Z,100349.63
2023-04-09T20:40:52.735Z,100347.06
2023-04-09T20:43:20.351Z,100346.34
2023-04-09T20:45:47.449Z,100350.97
2023-04-09T20:48:14.852Z,100351.00
2023-04-09T20:50:41.358Z,100357.28
2023-04-09T20:53:07.946Z,100341.56
2023-04-09T20:55:35.836Z,100348.75
2023-04-09T20:58:02.861Z,100344.56
2023-04-09T21:00:29.656Z,100343.78
2023-04-09T21:02:56.210Z,100343.84
2023-04-09T21:05:24.245Z,100339.56
2023-04-09T21:07:52.149Z,100344.94
2023-04-09T21:10:18.589Z,100345.09
2023-04-09T21:12:45.146Z,100342.53
2023-04-09T21:15:11.701Z,100345.28
2023-04-09T21:17:39.483Z,100346.22
2023-04-09T21:20:06.507Z,100337.50
2023-04-09T21:22:34.366Z,100332.34
2023-04-09T21:25:00.760Z,100335.09
2023-04-09T21:27:27.130Z,100329.97
2023-04-09T21:29:54.517Z,100333.59
2023-04-09T21:32:21.027Z,100334.59
2023-04-09T21:34:47.486Z,100333.81
2023-04-09T21:37:13.969Z,100324.31
2023-04-09T21:39:40.435Z,100327.06
2023-04-09T21:42:08.760Z,100328.03
2023-04-09T21:44:35.310Z,100332.50
2023-04-09T21:47:02.043Z,100330.84
2023-04-09T21:49:28.402Z,100330.91
2023-04-09T21:51:55.904Z,100333.59
2023-04-09T21:54:22.308Z,100326.59
2023-04-09T21:56:49.861Z,100327.59
2023-04-09T21:59:16.318Z,100332.13
2023-04-09T22:01:42.691Z,100328.75
2023-04-09T22:04:09.227Z,100330.66
2023-04-09T22:06:35.755Z,100338.63
2023-04-09T22:09:02.452Z,100334.28
2023-04-09T22:11:29.154Z,100337.00
2023-04-09T22:13:57.138Z,100339.75
2023-04-09T22:16:24.472Z,100340.72
2023-04-09T22:18:51.760Z,100337.31
2023-04-09T22:21:18.383Z,100334.78
2023-04-09T22:23:44.873Z,100341.88
2023-04-09T22:26:11.367Z,100341.94
2023-04-09T22:28:38.365Z,100339.41
2023-04-09T22:31:05.198Z,100334.13
2023-04-09T22:33:32.263Z,100337.69
2023-04-09T22:35:59.328Z,100330.75
2023-04-09T22:38:26.058Z,100332.59
2023-04-09T22:40:52.831Z,100334.47
2023-04-09T22:43:19.596Z,100332.75
2023-04-09T22:45:54.297Z,100337.22
2023-04-09T22:48:21.758Z,100328.47
2023-04-09T22:50:49.570Z,100323.31
2023-04-09T22:53:20.036Z,100329.66
2023-04-09T22:55:48.909Z,100324.44
2023-04-09T22:58:15.645Z,100329.66
2023-04-09T23:00:43.433Z,100328.81
2023-04-09T23:03:10.293Z,100330.75
2023-04-09T23:05:36.842Z,100327.28
2023-04-09T23:08:03.352Z,100331.72
2023-04-09T23:10:29.726Z,100330.81
2023-04-09T23:12:56.985Z,100328.28
2023-04-09T23:15:23.541Z,100330.97
2023-04-09T23:17:51.849Z,100331.06
2023-04-09T23:20:18.463Z,100333.84
2023-04-09T23:22:48.094Z,100330.34
2023-04-09T23:25:16.119Z,100331.47
2023-04-09T23:27:42.757Z,100329.72
2023-04-09T23:30:09.585Z,100324.47
2023-04-09T23:32:36.247Z,100330.63
2023-04-09T23:35:02.770Z,100327.16
2023-04-09T23:37:29.147Z,100335.19
2023-04-09T23:39:55.535Z,100336.94
2023-04-09T23:42:21.959Z,100337.84
2023-04-09T23:44:48.469Z,100338.75
2023-04-09T23:47:15.109Z,100338.88
2023-04-09T23:49:43.349Z,100336.44
2023-04-09T23:52:09.685Z,100333.78
2023-04-09T23:54:36.105Z,100327.69
2023-04-09T23:57:02.589Z,100329.38
2023-04-09T23:59:33.598Z,100332.91
